createdAt,value
2022-09-24T00:01:39.065Z,24.83
2022-09-24T00:04:12.344Z,24.80
2022-09-24T00:06:45.590Z,24.35
2022-09-24T00:09:19.540Z,26.73
2022-09-24T00:11:46.727Z,25.40
2022-09-24T00:14:14.106Z,24.15
2022-09-24T00:16:42.716Z,24.70
2022-09-24T00:19:11.452Z,25.52
2022-09-24T00:21:40.114Z,25.42
2022-09-24T00:24:36.297Z,23.30
2022-09-24T00:27:06.407Z,22.27
2022-09-24T00:29:35.930Z,21.85
2022-09-24T00:32:05.078Z,24.20
2022-09-24T00:34:32.109Z,22.98
2022-09-24T00:36:59.394Z,23.52
2022-09-24T00:39:26.525Z,22.25
2022-09-24T00:41:53.824Z,22.67
2022-09-24T00:44:44.834Z,22.08
2022-09-24T00:47:14.715Z,23.27
2022-09-24T00:49:42.229Z,21.83
2022-09-24T00:52:09.402Z,20.30
2022-09-24T00:54:37.311Z,22.45
2022-09-24T00:57:04.568Z,20.67
2022-09-24T00:59:31.549Z,20.52
2022-09-24T01:01:59.071Z,21.08
2022-09-24T01:04:28.499Z,21.70
2022-09-24T01:06:56.540Z,22.20
2022-09-24T01:09:26.177Z,20.13
2022-09-24T01:12:14.648Z,20.08
2022-09-24T01:15:22.958Z,19.58
2022-09-24T01:18:17.041Z,18.83
2022-09-24T01:20:54.028Z,21.20
2022-09-24T01:24:13.971Z,18.73
2022-09-24T01:27:14.341Z,18.60
2022-09-24T01:30:05.946Z,17.80
2022-09-24T01:32:49.541Z,18.52
2022-09-24T01:35:22.561Z,20.35
2022-09-24T01:38:01.647Z,20.35
2022-09-24T01:40:30.720Z,20.25
2022-09-24T01:43:00.086Z,21.45
2022-09-24T01:45:32.112Z,19.95
2022-09-24T01:48:02.488Z,20.73
2022-09-24T01:50:38.800Z,20.38
2022-09-24T01:53:17.552Z,21.27
2022-09-24T01:55:50.675Z,21.80
2022-09-24T01:58:23.928Z,21.85
2022-09-24T02:00:58.405Z,22.60
2022-09-24T02:03:35.127Z,23.63
2022-09-24T02:06:16.101Z,21.17
2022-09-24T02:08:48.155Z,22.17
2022-09-24T02:11:23.324Z,22.20
2022-09-24T02:13:51.392Z,21.83
2022-09-24T02:16:24.734Z,22.73
2022-09-24T02:18:56.985Z,22.60
2022-09-24T02:21:25.358Z,22.02
2022-09-24T02:23:58.293Z,23.40
2022-09-24T02:26:25.268Z,23.60
2022-09-24T02:28:52.391Z,25.10
2022-09-24T02:31:43.763Z,24.55
2022-09-24T02:34:22.438Z,24.92
2022-09-24T02:36:51.364Z,24.75
2022-09-24T02:39:19.143Z,24.77
2022-09-24T02:41:48.595Z,24.38
2022-09-24T02:44:16.952Z,25.52
2022-09-24T02:46:45.526Z,27.23
2022-09-24T02:49:14.572Z,24.83
2022-09-24T02:51:42.577Z,26.38
2022-09-24T02:54:11.092Z,28.25
2022-09-24T02:56:38.583Z,30.60
2022-09-24T02:59:06.256Z,29.42
2022-09-24T03:01:33.789Z,29.38
2022-09-24T03:04:01.788Z,28.27
2022-09-24T03:06:29.100Z,27.75
2022-09-24T03:08:56.296Z,31.02
2022-09-24T03:11:23.767Z,26.67
2022-09-24T03:13:51.155Z,30.00
2022-09-24T03:16:19.433Z,27.65
2022-09-24T03:18:49.898Z,26.85
2022-09-24T03:21:21.002Z,25.17
2022-09-24T03:23:47.963Z,24.15
2022-09-24T03:26:15.146Z,24.58
2022-09-24T03:28:42.214Z,25.33
2022-09-24T03:31:09.491Z,24.70
2022-09-24T03:33:48.233Z,24.58
2022-09-24T03:36:22.802Z,24.25
2022-09-24T03:38:55.446Z,24.80
2022-09-24T03:41:24.535Z,23.65
2022-09-24T03:43:51.566Z,21.27
2022-09-24T03:46:19.421Z,20.65
2022-09-24T03:48:47.567Z,21.33
2022-09-24T03:51:20.025Z,22.75
2022-09-24T03:53:48.120Z,22.67
2022-09-24T03:56:16.023Z,21.45
2022-09-24T03:58:47.599Z,20.00
2022-09-24T04:01:21.837Z,20.73
2022-09-24T04:03:50.468Z,19.55
2022-09-24T04:06:23.444Z,19.02
2022-09-24T04:08:53.147Z,19.73
2022-09-24T04:11:20.310Z,17.67
2022-09-24T04:13:47.227Z,20.20
2022-09-24T04:16:14.292Z,17.00
2022-09-24T04:18:41.304Z,17.25
2022-09-24T04:21:08.428Z,16.02
2022-09-24T04:23:35.612Z,17.17
2022-09-24T04:26:03.014Z,18.35
2022-09-24T04:28:30.958Z,15.95
2022-09-24T04:30:58.665Z,16.45
2022-09-24T04:33:25.607Z,17.42
2022-09-24T04:35:52.620Z,17.23
2022-09-24T04:38:21.208Z,16.17
2022-09-24T04:40:48.668Z,17.65
2022-09-24T04:43:16.116Z,16.65
2022-09-24T04:45:45.061Z,16.67
2022-09-24T04:48:12.699Z,15.27
2022-09-24T04:50:44.990Z,15.15
2022-09-24T04:53:14.301Z,16.13
2022-09-24T04:55:41.953Z,15.27
2022-09-24T04:58:09.823Z,16.00
2022-09-24T05:00:37.538Z,15.48
2022-09-24T05:03:04.797Z,15.95
2022-09-24T05:05:33.639Z,15.75
2022-09-24T05:08:01.767Z,14.57
2022-09-24T05:10:34.496Z,16.38
2022-09-24T05:13:02.159Z,15.82
2022-09-24T05:15:29.361Z,16.70
2022-09-24T05:17:56.511Z,15.73
2022-09-24T05:20:23.463Z,16.80
2022-09-24T05:22:50.941Z,16.40
2022-09-24T05:25:20.439Z,18.35
2022-09-24T05:27:50.494Z,16.65
2022-09-24T05:30:18.836Z,17.52
2022-09-24T05:32:47.118Z,16.33
2022-09-24T05:35:13.984Z,16.35
2022-09-24T05:37:41.191Z,17.88
2022-09-24T05:40:27.395Z,17.70
2022-09-24T05:43:04.219Z,17.08
2022-09-24T05:45:31.631Z,15.75
2022-09-24T05:48:00.091Z,17.73
2022-09-24T05:50:27.736Z,17.02
2022-09-24T05:52:54.945Z,16.45
2022-09-24T05:55:22.926Z,15.85
2022-09-24T05:57:49.967Z,17.60
2022-09-24T06:00:18.329Z,17.75
2022-09-24T06:02:45.559Z,16.40
2022-09-24T06:05:13.358Z,17.52
2022-09-24T06:07:40.279Z,18.33
2022-09-24T06:10:08.209Z,17.67
2022-09-24T06:12:35.443Z,17.33
2022-09-24T06:15:02.780Z,19.05
2022-09-24T06:17:31.449Z,17.58
2022-09-24T06:19:58.346Z,17.35
2022-09-24T06:22:28.560Z,17.05
2022-09-24T06:24:55.897Z,16.52
2022-09-24T06:27:22.836Z,18.70
2022-09-24T06:29:49.856Z,18.70
2022-09-24T06:32:18.801Z,18.27
2022-09-24T06:34:45.999Z,19.98
2022-09-24T06:37:13.197Z,18.42
2022-09-24T06:39:40.248Z,19.65
2022-09-24T06:42:07.385Z,20.13
2022-09-24T06:44:36.041Z,18.83
2022-09-24T06:47:03.838Z,17.33
2022-09-24T06:49:34.314Z,18.35
2022-09-24T06:52:02.532Z,18.85
2022-09-24T06:54:29.590Z,18.02
2022-09-24T06:56:56.740Z,17.48
2022-09-24T06:59:23.867Z,20.52
2022-09-24T07:01:50.953Z,19.77
2022-09-24T07:04:18.387Z,18.88
2022-09-24T07:07:03.777Z,19.27
2022-09-24T07:09:31.125Z,18.05
2022-09-24T07:12:04.855Z,18.63
2022-09-24T07:14:33.182Z,18.63
2022-09-24T07:17:00.325Z,17.67
2022-09-24T07:19:27.439Z,18.95
2022-09-24T07:21:54.554Z,17.90
2022-09-24T07:24:21.587Z,18.77
2022-09-24T07:26:49.861Z,18.52
2022-09-24T07:29:17.099Z,18.92
2022-09-24T07:31:44.212Z,16.17
2022-09-24T07:34:11.456Z,15.63
2022-09-24T07:36:38.667Z,16.92
2022-09-24T07:39:06.159Z,20.02
2022-09-24T07:41:38.630Z,16.98
2022-09-24T07:44:11.915Z,17.10
2022-09-24T07:46:39.126Z,16.25
2022-09-24T07:49:06.353Z,15.73
2022-09-24T07:51:33.395Z,15.60
2022-09-24T07:54:00.446Z,16.25
2022-09-24T07:56:27.604Z,16.67
2022-09-24T07:58:54.692Z,16.13
2022-09-24T08:01:21.822Z,14.43
2022-09-24T08:03:49.040Z,15.80
2022-09-24T08:06:16.113Z,15.88
2022-09-24T08:08:43.939Z,16.35
2022-09-24T08:11:13.577Z,15.70
2022-09-24T08:13:40.872Z,16.08
2022-09-24T08:16:08.016Z,15.98
2022-09-24T08:18:35.277Z,16.20
2022-09-24T08:21:11.998Z,17.15
2022-09-24T08:23:40.254Z,16.77
2022-09-24T08:26:07.977Z,16.63
2022-09-24T08:28:35.814Z,15.20
2022-09-24T08:31:08.996Z,14.82
2022-09-24T08:33:37.331Z,15.00
2022-09-24T08:36:08.467Z,15.73
2022-09-24T08:38:36.251Z,15.00
2022-09-24T08:41:12.404Z,15.18
2022-09-24T08:44:02.984Z,13.95
2022-09-24T08:47:09.516Z,15.18
2022-09-24T08:49:50.059Z,14.35
2022-09-24T08:52:43.240Z,13.25
2022-09-24T08:55:23.914Z,13.43
2022-09-24T08:58:08.847Z,12.95
2022-09-24T09:00:45.998Z,13.50
2022-09-24T09:03:30.484Z,12.07
2022-09-24T09:06:04.178Z,12.70
2022-09-24T09:09:06.779Z,13.15
2022-09-24T09:11:37.487Z,13.77
2022-09-24T09:14:41.067Z,13.57
2022-09-24T09:17:32.832Z,13.65
2022-09-24T09:20:05.761Z,12.52
2022-09-24T09:22:44.408Z,13.57
2022-09-24T09:25:28.545Z,13.52
2022-09-24T09:28:02.974Z,12.02
2022-09-24T09:30:43.736Z,11.27
2022-09-24T09:33:34.938Z,11.68
2022-09-24T09:36:39.523Z,11.60
2022-09-24T09:39:18.708Z,11.15
2022-09-24T09:42:23.200Z,11.20
2022-09-24T09:44:50.541Z,11.05
2022-09-24T09:47:40.278Z,10.35
2022-09-24T09:50:26.521Z,10.18
2022-09-24T09:52:54.040Z,9.95
2022-09-24T09:55:36.974Z,10.73
2022-09-24T09:58:29.353Z,11.45
2022-09-24T10:01:15.702Z,10.13
2022-09-24T10:03:46.559Z,10.98
2022-09-24T10:06:29.262Z,10.43
2022-09-24T10:09:12.723Z,9.23
2022-09-24T10:11:40.497Z,10.70
2022-09-24T10:14:12.344Z,9.07
2022-09-24T10:16:55.212Z,9.88
2022-09-24T10:19:28.257Z,9.63
2022-09-24T10:21:59.940Z,9.93
2022-09-24T10:24:28.998Z,9.57
2022-09-24T10:26:56.114Z,8.98
2022-09-24T10:29:51.425Z,8.43
2022-09-24T10:32:22.778Z,7.90
2022-09-24T10:34:56.832Z,7.30
2022-09-24T10:37:24.156Z,8.35
2022-09-24T10:40:23.798Z,7.88
2022-09-24T10:43:03.142Z,7.60
2022-09-24T10:46:13.120Z,7.20
2022-09-24T10:49:05.814Z,7.22
2022-09-24T10:51:57.361Z,7.90
2022-09-24T10:54:33.576Z,8.48
2022-09-24T10:57:35.046Z,6.60
2022-09-24T11:00:23.223Z,6.38
2022-09-24T11:03:27.963Z,6.75
2022-09-24T11:06:05.489Z,6.00
2022-09-24T11:09:21.397Z,6.78
2022-09-24T11:12:25.909Z,6.65
2022-09-24T11:15:59.092Z,4.82
2022-09-24T11:18:46.134Z,5.35
2022-09-24T11:21:59.595Z,5.85
2022-09-24T11:25:19.641Z,5.68
2022-09-24T11:28:26.866Z,5.80
2022-09-24T11:31:19.311Z,5.47
2022-09-24T11:34:19.335Z,4.32
2022-09-24T11:37:15.466Z,4.07
2022-09-24T11:40:10.386Z,5.38
2022-09-24T11:43:04.582Z,5.15
2022-09-24T11:46:25.356Z,4.50
2022-09-24T11:49:29.076Z,3.58
2022-09-24T11:52:16.236Z,3.10
2022-09-24T11:55:19.081Z,3.03
2022-09-24T11:58:18.634Z,3.60
2022-09-24T12:01:10.256Z,4.10
2022-09-24T12:03:48.334Z,4.10
2022-09-24T12:06:25.664Z,4.20
2022-09-24T12:09:01.553Z,3.53
2022-09-24T12:11:36.218Z,3.47
2022-09-24T12:14:27.094Z,3.78
2022-09-24T12:17:01.791Z,3.35
2022-09-24T12:19:50.412Z,3.20
2022-09-24T12:22:20.606Z,3.28
2022-09-24T12:24:58.641Z,3.85
2022-09-24T12:27:39.899Z,3.63
2022-09-24T12:30:59.866Z,2.78
2022-09-24T12:34:10.241Z,2.85
2022-09-24T12:36:57.624Z,2.67
2022-09-24T12:39:33.507Z,3.05
2022-09-24T12:42:07.416Z,2.25
2022-09-24T12:44:55.875Z,3.13
2022-09-24T12:47:29.914Z,3.22
2022-09-24T12:50:04.554Z,3.20
2022-09-24T12:52:42.701Z,2.92
2022-09-24T12:55:34.921Z,3.08
2022-09-24T12:58:08.182Z,3.30
2022-09-24T13:00:47.464Z,3.60
2022-09-24T13:03:39.068Z,3.50
2022-09-24T13:06:30.406Z,3.15
2022-09-24T13:09:00.794Z,3.35
2022-09-24T13:11:36.687Z,3.67
2022-09-24T13:14:12.536Z,2.80
2022-09-24T13:16:43.430Z,3.40
2022-09-24T13:19:31.239Z,3.72
2022-09-24T13:22:00.886Z,3.78
2022-09-24T13:24:53.989Z,3.35
2022-09-24T13:27:37.893Z,2.80
2022-09-24T13:30:38.124Z,3.08
2022-09-24T13:33:31.973Z,3.13
2022-09-24T13:36:17.653Z,3.25
2022-09-24T13:39:11.454Z,3.00
2022-09-24T13:42:01.075Z,3.17
2022-09-24T13:44:40.717Z,3.45
2022-09-24T13:47:36.350Z,3.53
2022-09-24T13:50:24.865Z,2.40
2022-09-24T13:53:00.272Z,2.90
2022-09-24T13:55:43.399Z,2.72
2022-09-24T13:58:34.285Z,2.50
2022-09-24T14:01:10.213Z,2.78
2022-09-24T14:03:40.304Z,2.40
2022-09-24T14:06:16.606Z,1.98
2022-09-24T14:08:46.938Z,2.33
2022-09-24T14:11:19.641Z,1.98
2022-09-24T14:13:47.412Z,2.10
2022-09-24T14:16:20.279Z,1.73
2022-09-24T14:18:48.616Z,2.05
2022-09-24T14:21:36.477Z,1.70
2022-09-24T14:24:16.854Z,1.38
2022-09-24T14:26:57.342Z,1.90
2022-09-24T14:29:43.979Z,1.98
2022-09-24T14:32:29.741Z,1.70
2022-09-24T14:35:01.227Z,1.83
2022-09-24T14:37:50.101Z,1.45
2022-09-24T14:40:21.836Z,1.83
2022-09-24T14:42:55.720Z,1.75
2022-09-24T14:45:28.020Z,2.17
2022-09-24T14:48:04.388Z,2.53
2022-09-24T14:50:38.757Z,1.90
2022-09-24T14:53:22.490Z,2.28
2022-09-24T14:55:53.602Z,2.00
2022-09-24T14:58:31.350Z,1.90
2022-09-24T15:01:03.192Z,2.15
2022-09-24T15:03:38.264Z,2.47
2022-09-24T15:06:22.739Z,2.40
2022-09-24T15:09:07.792Z,2.22
2022-09-24T15:11:37.403Z,2.40
2022-09-24T15:14:25.057Z,1.95
2022-09-24T15:16:53.475Z,1.80
2022-09-24T15:19:28.765Z,1.80
2022-09-24T15:21:57.454Z,2.20
2022-09-24T15:24:25.293Z,1.80
2022-09-24T15:27:37.253Z,1.83
2022-09-24T15:30:07.962Z,1.55
2022-09-24T15:32:36.112Z,1.40
2022-09-24T15:35:09.486Z,1.90
2022-09-24T15:37:40.009Z,2.63
2022-09-24T15:40:25.522Z,1.23
2022-09-24T15:42:52.944Z,1.33
2022-09-24T15:45:23.770Z,1.27
2022-09-24T15:47:52.952Z,1.80
2022-09-24T15:50:22.728Z,1.80
2022-09-24T15:52:59.188Z,1.52
2022-09-24T15:55:26.664Z,2.17
2022-09-24T15:57:54.505Z,1.98
2022-09-24T16:00:24.980Z,1.40
2022-09-24T16:02:56.013Z,1.90
2022-09-24T16:05:25.284Z,1.88
2022-09-24T16:07:52.341Z,1.67
2022-09-24T16:10:19.590Z,2.30
2022-09-24T16:12:46.734Z,1.65
2022-09-24T16:15:16.272Z,1.50
2022-09-24T16:17:44.045Z,1.30
2022-09-24T16:20:11.294Z,1.80
2022-09-24T16:22:38.477Z,1.63
2022-09-24T16:25:06.365Z,1.90
2022-09-24T16:27:35.410Z,2.25
2022-09-24T16:30:06.407Z,2.15
2022-09-24T16:32:34.262Z,2.78
2022-09-24T16:35:01.434Z,2.33
2022-09-24T16:37:28.974Z,1.50
2022-09-24T16:39:56.266Z,1.70
2022-09-24T16:42:26.446Z,1.50
2022-09-24T16:44:53.589Z,1.27
2022-09-24T16:47:20.762Z,1.48
2022-09-24T16:49:48.205Z,1.42
2022-09-24T16:52:15.313Z,3.20
2022-09-24T16:54:42.322Z,2.20
2022-09-24T16:57:09.583Z,1.35
2022-09-24T16:59:36.613Z,1.02
2022-09-24T17:02:04.029Z,1.08
2022-09-24T17:04:31.102Z,1.38
2022-09-24T17:06:58.900Z,1.63
2022-09-24T17:09:44.677Z,1.25
2022-09-24T17:12:11.873Z,1.27
2022-09-24T17:14:39.010Z,1.02
2022-09-24T17:17:06.605Z,0.70
2022-09-24T17:19:33.696Z,1.05
2022-09-24T17:22:00.758Z,1.70
2022-09-24T17:24:27.941Z,1.27
2022-09-24T17:26:56.630Z,1.10
2022-09-24T17:29:30.340Z,1.20
2022-09-24T17:31:58.694Z,1.50
2022-09-24T17:34:25.849Z,0.95
2022-09-24T17:36:52.890Z,0.80
2022-09-24T17:39:19.947Z,1.95
2022-09-24T17:41:47.122Z,1.63
2022-09-24T17:44:14.411Z,0.85
2022-09-24T17:46:41.560Z,1.67
2022-09-24T17:49:10.092Z,0.75
2022-09-24T17:51:38.121Z,0.90
2022-09-24T17:54:11.560Z,0.63
2022-09-24T17:56:39.190Z,2.22
2022-09-24T17:59:09.743Z,1.20
2022-09-24T18:01:39.199Z,0.90
2022-09-24T18:04:11.380Z,1.67
2022-09-24T18:06:40.857Z,1.30
2022-09-24T18:09:09.718Z,1.13
2022-09-24T18:11:51.392Z,1.77
2022-09-24T18:14:21.986Z,1.48
2022-09-24T18:16:50.535Z,0.85
2022-09-24T18:19:18.119Z,1.05
2022-09-24T18:21:47.020Z,1.10
2022-09-24T18:24:16.399Z,2.40
2022-09-24T18:26:43.823Z,0.77
2022-09-24T18:29:16.503Z,0.90
2022-09-24T18:31:44.838Z,0.98
2022-09-24T18:34:15.441Z,0.80
2022-09-24T18:36:44.796Z,1.13
2022-09-24T18:39:15.240Z,1.83
2022-09-24T18:41:44.648Z,1.17
2022-09-24T18:44:11.755Z,1.25
2022-09-24T18:46:39.489Z,1.70
2022-09-24T18:49:06.962Z,0.73
2022-09-24T18:51:37.733Z,0.95
2022-09-24T18:54:10.926Z,1.00
2022-09-24T18:56:38.097Z,1.00
2022-09-24T18:59:10.244Z,1.83
2022-09-24T19:01:39.449Z,1.75
2022-09-24T19:04:10.899Z,0.82
2022-09-24T19:06:40.851Z,1.00
2022-09-24T19:09:09.907Z,1.25
2022-09-24T19:11:37.017Z,0.90
2022-09-24T19:14:04.164Z,1.10
2022-09-24T19:16:31.620Z,1.10
2022-09-24T19:19:00.589Z,1.60
2022-09-24T19:21:27.941Z,2.53
2022-09-24T19:23:57.937Z,0.70
2022-09-24T19:26:31.621Z,1.38
2022-09-24T19:28:59.414Z,1.27
2022-09-24T19:31:43.111Z,0.95
2022-09-24T19:34:12.859Z,1.00
2022-09-24T19:36:44.928Z,0.95
2022-09-24T19:39:15.610Z,1.17
2022-09-24T19:41:43.608Z,1.60
2022-09-24T19:44:11.607Z,1.15
2022-09-24T19:46:39.478Z,1.45
2022-09-24T19:49:07.332Z,1.70
2022-09-24T19:51:35.769Z,1.48
2022-09-24T19:54:09.136Z,1.23
2022-09-24T19:56:37.061Z,1.45
2022-09-24T19:59:05.252Z,1.58
2022-09-24T20:01:33.759Z,1.30
2022-09-24T20:04:06.227Z,1.73
2022-09-24T20:06:35.999Z,1.67
2022-09-24T20:09:03.084Z,1.98
2022-09-24T20:11:32.637Z,2.55
2022-09-24T20:14:01.333Z,1.90
2022-09-24T20:16:32.990Z,1.88
2022-09-24T20:19:02.096Z,1.88
2022-09-24T20:21:34.967Z,2.10
2022-09-24T20:24:03.878Z,1.75
2022-09-24T20:26:49.890Z,2.53
2022-09-24T20:29:19.557Z,3.20
2022-09-24T20:31:53.027Z,2.47
2022-09-24T20:34:24.691Z,2.83
2022-09-24T20:36:52.213Z,2.90
2022-09-24T20:39:20.083Z,2.90
2022-09-24T20:41:49.482Z,3.05
2022-09-24T20:44:17.476Z,2.85
2022-09-24T20:46:44.470Z,3.28
2022-09-24T20:49:22.372Z,3.63
2022-09-24T20:51:57.087Z,3.15
2022-09-24T20:54:26.170Z,3.15
2022-09-24T20:56:53.143Z,3.55
2022-09-24T20:59:20.156Z,3.22
2022-09-24T21:01:48.046Z,2.40
2022-09-24T21:04:15.079Z,2.63
2022-09-24T21:06:41.938Z,4.28
2022-09-24T21:09:08.850Z,3.33
2022-09-24T21:11:35.768Z,3.80
2022-09-24T21:14:03.091Z,2.65
2022-09-24T21:16:34.045Z,3.05
2022-09-24T21:19:04.696Z,2.30
2022-09-24T21:21:38.251Z,3.42
2022-09-24T21:24:07.680Z,2.47
2022-09-24T21:26:37.506Z,2.20
2022-09-24T21:29:11.698Z,2.33
2022-09-24T21:31:40.033Z,3.00
2022-09-24T21:34:08.193Z,2.20
2022-09-24T21:36:44.696Z,1.98
2022-09-24T21:39:22.982Z,3.83
2022-09-24T21:41:52.528Z,2.50
2022-09-24T21:44:19.838Z,2.17
2022-09-24T21:46:47.837Z,1.80
2022-09-24T21:49:16.952Z,3.38
2022-09-24T21:51:44.232Z,1.80
2022-09-24T21:54:16.915Z,1.77
2022-09-24T21:56:44.766Z,1.73
2022-09-24T21:59:30.275Z,2.25
2022-09-24T22:01:57.143Z,1.75
2022-09-24T22:04:24.063Z,2.63
2022-09-24T22:06:51.436Z,2.10
2022-09-24T22:09:18.963Z,1.80
2022-09-24T22:11:46.797Z,2.00
2022-09-24T22:14:14.598Z,2.78
2022-09-24T22:16:41.837Z,2.15
2022-09-24T22:19:11.653Z,2.28
2022-09-24T22:21:38.580Z,1.45
2022-09-24T22:24:05.798Z,1.70
2022-09-24T22:26:32.919Z,1.80
2022-09-24T22:29:02.027Z,1.40
2022-09-24T22:31:28.955Z,1.40
2022-09-24T22:34:14.784Z,2.72
2022-09-24T22:36:41.655Z,1.83
2022-09-24T22:39:09.504Z,1.40
2022-09-24T22:41:39.921Z,3.28
2022-09-24T22:44:07.681Z,1.73
2022-09-24T22:46:36.299Z,2.20
2022-09-24T22:49:05.289Z,2.45
2022-09-24T22:51:32.584Z,1.33
2022-09-24T22:54:00.214Z,1.58
2022-09-24T22:56:28.453Z,1.83
2022-09-24T22:59:00.646Z,1.38
2022-09-24T23:01:34.103Z,1.83
2022-09-24T23:04:02.345Z,1.70
2022-09-24T23:06:31.328Z,1.52
2022-09-24T23:08:58.647Z,1.45
2022-09-24T23:11:32.185Z,1.75
2022-09-24T23:14:11.815Z,2.20
2022-09-24T23:16:39.102Z,1.63
2022-09-24T23:19:12.861Z,1.90
2022-09-24T23:21:39.793Z,1.83
2022-09-24T23:24:34.478Z,2.00
2022-09-24T23:27:01.361Z,3.65
2022-09-24T23:29:28.378Z,1.80
2022-09-24T23:31:55.586Z,2.78
2022-09-24T23:34:22.591Z,3.78
2022-09-24T23:36:49.499Z,2.20
2022-09-24T23:39:16.350Z,1.92
2022-09-24T23:41:43.314Z,6.45
2022-09-24T23:44:10.833Z,1.63
2022-09-24T23:46:38.090Z,2.63
2022-09-24T23:49:04.959Z,2.25
2022-09-24T23:51:31.883Z,1.65
2022-09-24T23:53:58.739Z,1.42
2022-09-24T23:56:25.797Z,2.17
2022-09-24T23:58:52.670Z,1.73
